sensor_id;sensor_type;location;lat;lon;timestamp;P1;durP1;ratioP1;P2;durP2;ratioP2
19798;SDS011;10059;59.850;10.454;2023-04-03T00:01:39;2.23;;;1.20;;
19798;SDS011;10059;59.850;10.454;2023-04-03T00:04:06;1.97;;;1.13;;
19798;SDS011;10059;59.850;10.454;2023-04-03T00:06:35;4.57;;;1.30;;
19798;SDS011;10059;59.850;10.454;2023-04-03T00:09:02;5.50;;;2.10;;
19798;SDS011;10059;59.850;10.454;2023-04-03T00:11:29;6.23;;;1.30;;
19798;SDS011;10059;59.850;10.454;2023-04-03T00:13:55;4.10;;;1.40;;
19798;SDS011;10059;59.850;10.454;2023-04-03T00:16:22;3.67;;;1.30;;
19798;SDS011;10059;59.850;10.454;2023-04-03T00:18:49;3.97;;;1.40;;
19798;SDS011;10059;59.850;10.454;2023-04-03T00:21:16;4.53;;;2.20;;
19798;SDS011;10059;59.850;10.454;2023-04-03T00:23:44;6.50;;;2.47;;
19798;SDS011;10059;59.850;10.454;2023-04-03T00:26:11;6.43;;;2.37;;
19798;SDS011;10059;59.850;10.454;2023-04-03T00:28:38;2.87;;;1.80;;
19798;SDS011;10059;59.850;10.454;2023-04-03T00:31:04;3.53;;;1.60;;
19798;SDS011;10059;59.850;10.454;2023-04-03T00:33:31;3.50;;;1.63;;
19798;SDS011;10059;59.850;10.454;2023-04-03T00:35:58;2.87;;;1.50;;
19798;SDS011;10059;59.850;10.454;2023-04-03T00:38:25;3.47;;;1.40;;
19798;SDS011;10059;59.850;10.454;2023-04-03T00:40:53;3.60;;;1.23;;
19798;SDS011;10059;59.850;10.454;2023-04-03T00:43:21;2.83;;;1.33;;
19798;SDS011;10059;59.850;10.454;2023-04-03T00:45:49;5.67;;;1.20;;
19798;SDS011;10059;59.850;10.454;2023-04-03T00:48:18;2.07;;;1.30;;
19798;SDS011;10059;59.850;10.454;2023-04-03T00:50:48;4.37;;;1.37;;
19798;SDS011;10059;59.850;10.454;2023-04-03T00:53:16;6.20;;;1.60;;
19798;SDS011;10059;59.850;10.454;2023-04-03T00:55:45;6.50;;;1.60;;
19798;SDS011;10059;59.850;10.454;2023-04-03T00:58:16;2.27;;;1.27;;
19798;SDS011;10059;59.850;10.454;2023-04-03T01:00:46;1.80;;;1.27;;
19798;SDS011;10059;59.850;10.454;2023-04-03T01:03:21;3.43;;;1.50;;
19798;SDS011;10059;59.850;10.454;2023-04-03T01:05:48;2.10;;;1.30;;
19798;SDS011;10059;59.850;10.454;2023-04-03T01:08:15;4.00;;;1.33;;
19798;SDS011;10059;59.850;10.454;2023-04-03T01:10:42;5.07;;;1.80;;
19798;SDS011;10059;59.850;10.454;2023-04-03T01:13:22;2.97;;;1.40;;
19798;SDS011;10059;59.850;10.454;2023-04-03T01:15:51;3.40;;;1.83;;
19798;SDS011;10059;59.850;10.454;2023-04-03T01:18:18;2.97;;;1.50;;
19798;SDS011;10059;59.850;10.454;2023-04-03T01:23:55;4.00;;;1.60;;
19798;SDS011;10059;59.850;10.454;2023-04-03T01:26:40;3.63;;;1.40;;
19798;SDS011;10059;59.850;10.454;2023-04-03T01:29:09;7.17;;;2.00;;
19798;SDS011;10059;59.850;10.454;2023-04-03T01:31:51;2.60;;;1.70;;
19798;SDS011;10059;59.850;10.454;2023-04-03T01:34:19;3.50;;;1.50;;
19798;SDS011;10059;59.850;10.454;2023-04-03T01:36:46;4.87;;;1.90;;
19798;SDS011;10059;59.850;10.454;2023-04-03T01:39:13;4.93;;;2.53;;
19798;SDS011;10059;59.850;10.454;2023-04-03T01:41:40;6.40;;;2.50;;
19798;SDS011;10059;59.850;10.454;2023-04-03T01:44:07;5.50;;;2.47;;
19798;SDS011;10059;59.850;10.454;2023-04-03T01:46:34;6.27;;;2.17;;
19798;SDS011;10059;59.850;10.454;2023-04-03T01:49:04;6.97;;;2.30;;
19798;SDS011;10059;59.850;10.454;2023-04-03T01:51:30;7.23;;;2.93;;
19798;SDS011;10059;59.850;10.454;2023-04-03T01:53:58;5.53;;;2.63;;
19798;SDS011;10059;59.850;10.454;2023-04-03T01:56:25;5.20;;;2.07;;
19798;SDS011;10059;59.850;10.454;2023-04-03T01:58:51;5.70;;;2.50;;
19798;SDS011;10059;59.850;10.454;2023-04-03T02:01:18;5.50;;;2.27;;
19798;SDS011;10059;59.850;10.454;2023-04-03T02:03:46;5.73;;;2.37;;
19798;SDS011;10059;59.850;10.454;2023-04-03T02:06:14;5.57;;;2.70;;
19798;SDS011;10059;59.850;10.454;2023-04-03T02:08:41;7.40;;;2.67;;
19798;SDS011;10059;59.850;10.454;2023-04-03T02:11:08;5.07;;;2.60;;
19798;SDS011;10059;59.850;10.454;2023-04-03T02:13:35;6.17;;;2.27;;
19798;SDS011;10059;59.850;10.454;2023-04-03T02:16:05;5.93;;;2.60;;
19798;SDS011;10059;59.850;10.454;2023-04-03T02:18:33;4.47;;;2.70;;
19798;SDS011;10059;59.850;10.454;2023-04-03T02:21:00;5.60;;;2.30;;
19798;SDS011;10059;59.850;10.454;2023-04-03T02:23:28;7.33;;;2.30;;
19798;SDS011;10059;59.850;10.454;2023-04-03T02:26:02;4.07;;;2.27;;
19798;SDS011;10059;59.850;10.454;2023-04-03T02:28:30;5.23;;;1.90;;
19798;SDS011;10059;59.850;10.454;2023-04-03T02:30:57;3.73;;;1.87;;
19798;SDS011;10059;59.850;10.454;2023-04-03T02:33:24;4.27;;;1.80;;
19798;SDS011;10059;59.850;10.454;2023-04-03T02:35:52;3.77;;;1.90;;
19798;SDS011;10059;59.850;10.454;2023-04-03T02:38:19;7.77;;;1.87;;
19798;SDS011;10059;59.850;10.454;2023-04-03T02:40:47;5.10;;;2.10;;
19798;SDS011;10059;59.850;10.454;2023-04-03T02:43:15;4.57;;;2.10;;
19798;SDS011;10059;59.850;10.454;2023-04-03T02:45:42;4.10;;;1.83;;
19798;SDS011;10059;59.850;10.454;2023-04-03T02:48:08;6.23;;;1.80;;
19798;SDS011;10059;59.850;10.454;2023-04-03T02:50:35;4.17;;;1.90;;
19798;SDS011;10059;59.850;10.454;2023-04-03T02:53:02;6.33;;;1.90;;
19798;SDS011;10059;59.850;10.454;2023-04-03T02:55:29;5.33;;;2.00;;
19798;SDS011;10059;59.850;10.454;2023-04-03T02:57:58;5.97;;;2.13;;
19798;SDS011;10059;59.850;10.454;2023-04-03T03:00:24;4.43;;;1.97;;
19798;SDS011;10059;59.850;10.454;2023-04-03T03:02:51;4.47;;;2.00;;
19798;SDS011;10059;59.850;10.454;2023-04-03T03:05:18;3.73;;;1.97;;
19798;SDS011;10059;59.850;10.454;2023-04-03T03:07:45;5.03;;;1.87;;
19798;SDS011;10059;59.850;10.454;2023-04-03T03:10:12;4.87;;;1.70;;
19798;SDS011;10059;59.850;10.454;2023-04-03T03:12:39;3.70;;;1.73;;
19798;SDS011;10059;59.850;10.454;2023-04-03T03:15:08;4.93;;;1.90;;
19798;SDS011;10059;59.850;10.454;2023-04-03T03:17:35;7.47;;;1.80;;
19798;SDS011;10059;59.850;10.454;2023-04-03T03:20:02;4.27;;;2.00;;
19798;SDS011;10059;59.850;10.454;2023-04-03T03:22:30;2.63;;;1.67;;
19798;SDS011;10059;59.850;10.454;2023-04-03T03:24:57;6.80;;;1.93;;
19798;SDS011;10059;59.850;10.454;2023-04-03T03:27:24;5.27;;;1.83;;
19798;SDS011;10059;59.850;10.454;2023-04-03T03:29:50;4.23;;;1.90;;
19798;SDS011;10059;59.850;10.454;2023-04-03T03:32:19;5.80;;;1.57;;
19798;SDS011;10059;59.850;10.454;2023-04-03T03:34:45;5.67;;;1.80;;
19798;SDS011;10059;59.850;10.454;2023-04-03T03:37:12;7.13;;;1.70;;
19798;SDS011;10059;59.850;10.454;2023-04-03T03:39:39;7.10;;;1.90;;
19798;SDS011;10059;59.850;10.454;2023-04-03T03:42:06;4.70;;;2.27;;
19798;SDS011;10059;59.850;10.454;2023-04-03T03:44:33;2.63;;;1.70;;
19798;SDS011;10059;59.850;10.454;2023-04-03T03:47:00;3.50;;;1.93;;
19798;SDS011;10059;59.850;10.454;2023-04-03T03:49:29;7.43;;;2.00;;
19798;SDS011;10059;59.850;10.454;2023-04-03T03:51:56;5.67;;;1.90;;
19798;SDS011;10059;59.850;10.454;2023-04-03T03:54:23;4.63;;;1.97;;
19798;SDS011;10059;59.850;10.454;2023-04-03T03:56:49;4.20;;;2.10;;
19798;SDS011;10059;59.850;10.454;2023-04-03T03:59:16;5.70;;;1.70;;
19798;SDS011;10059;59.850;10.454;2023-04-03T04:01:43;5.80;;;2.10;;
19798;SDS011;10059;59.850;10.454;2023-04-03T04:04:10;6.50;;;1.97;;
19798;SDS011;10059;59.850;10.454;2023-04-03T04:06:38;4.57;;;1.90;;
19798;SDS011;10059;59.850;10.454;2023-04-03T04:09:05;6.57;;;2.03;;
19798;SDS011;10059;59.850;10.454;2023-04-03T04:11:32;3.37;;;1.93;;
19798;SDS011;10059;59.850;10.454;2023-04-03T04:13:59;4.93;;;1.80;;
19798;SDS011;10059;59.850;10.454;2023-04-03T04:16:26;4.67;;;1.77;;
19798;SDS011;10059;59.850;10.454;2023-04-03T04:18:53;6.93;;;1.80;;
19798;SDS011;10059;59.850;10.454;2023-04-03T04:21:20;10.77;;;2.00;;
19798;SDS011;10059;59.850;10.454;2023-04-03T04:23:48;5.77;;;2.17;;
19798;SDS011;10059;59.850;10.454;2023-04-03T04:26:15;4.63;;;2.13;;
19798;SDS011;10059;59.850;10.454;2023-04-03T04:28:41;7.07;;;2.20;;
19798;SDS011;10059;59.850;10.454;2023-04-03T04:31:08;7.37;;;2.27;;
19798;SDS011;10059;59.850;10.454;2023-04-03T04:33:35;9.43;;;2.13;;
19798;SDS011;10059;59.850;10.454;2023-04-03T04:36:02;3.80;;;1.87;;
19798;SDS011;10059;59.850;10.454;2023-04-03T04:38:29;8.40;;;2.17;;
19798;SDS011;10059;59.850;10.454;2023-04-03T04:40:57;5.97;;;2.10;;
19798;SDS011;10059;59.850;10.454;2023-04-03T04:43:24;7.80;;;2.50;;
19798;SDS011;10059;59.850;10.454;2023-04-03T04:45:59;7.90;;;2.47;;
19798;SDS011;10059;59.850;10.454;2023-04-03T04:48:27;11.20;;;2.23;;
19798;SDS011;10059;59.850;10.454;2023-04-03T04:50:54;9.90;;;2.30;;
19798;SDS011;10059;59.850;10.454;2023-04-03T04:53:21;8.10;;;2.57;;
19798;SDS011;10059;59.850;10.454;2023-04-03T04:55:48;5.90;;;2.20;;
19798;SDS011;10059;59.850;10.454;2023-04-03T04:58:16;9.83;;;2.20;;
19798;SDS011;10059;59.850;10.454;2023-04-03T05:00:43;7.53;;;2.67;;
19798;SDS011;10059;59.850;10.454;2023-04-03T05:03:10;12.80;;;2.37;;
19798;SDS011;10059;59.850;10.454;2023-04-03T05:05:37;7.97;;;2.40;;
19798;SDS011;10059;59.850;10.454;2023-04-03T05:08:04;4.63;;;2.23;;
19798;SDS011;10059;59.850;10.454;2023-04-03T05:10:33;9.80;;;2.60;;
19798;SDS011;10059;59.850;10.454;2023-04-03T05:13:00;6.37;;;2.80;;
19798;SDS011;10059;59.850;10.454;2023-04-03T05:15:28;8.27;;;3.50;;
19798;SDS011;10059;59.850;10.454;2023-04-03T05:17:55;6.57;;;2.40;;
19798;SDS011;10059;59.850;10.454;2023-04-03T05:20:22;9.40;;;2.60;;
19798;SDS011;10059;59.850;10.454;2023-04-03T05:22:49;11.00;;;2.30;;
19798;SDS011;10059;59.850;10.454;2023-04-03T05:25:16;11.33;;;2.43;;
19798;SDS011;10059;59.850;10.454;2023-04-03T05:27:43;16.23;;;2.50;;
19798;SDS011;10059;59.850;10.454;2023-04-03T05:30:11;10.27;;;1.83;;
19798;SDS011;10059;59.850;10.454;2023-04-03T05:32:39;10.23;;;2.07;;
19798;SDS011;10059;59.850;10.454;2023-04-03T05:35:07;7.20;;;1.73;;
19798;SDS011;10059;59.850;10.454;2023-04-03T05:37:34;11.53;;;2.27;;
19798;SDS011;10059;59.850;10.454;2023-04-03T05:40:02;11.33;;;2.33;;
19798;SDS011;10059;59.850;10.454;2023-04-03T05:42:29;14.83;;;2.30;;
19798;SDS011;10059;59.850;10.454;2023-04-03T05:44:56;16.47;;;2.50;;
19798;SDS011;10059;59.850;10.454;2023-04-03T05:47:23;5.90;;;2.10;;
19798;SDS011;10059;59.850;10.454;2023-04-03T05:49:52;5.63;;;2.37;;
19798;SDS011;10059;59.850;10.454;2023-04-03T05:52:20;9.03;;;2.30;;
19798;SDS011;10059;59.850;10.454;2023-04-03T05:54:51;5.63;;;2.43;;
19798;SDS011;10059;59.850;10.454;2023-04-03T05:57:18;3.83;;;1.80;;
19798;SDS011;10059;59.850;10.454;2023-04-03T05:59:45;8.63;;;2.20;;
19798;SDS011;10059;59.850;10.454;2023-04-03T06:02:14;7.83;;;2.40;;
19798;SDS011;10059;59.850;10.454;2023-04-03T06:04:41;6.13;;;2.30;;
19798;SDS011;10059;59.850;10.454;2023-04-03T06:07:11;7.00;;;3.50;;
19798;SDS011;10059;59.850;10.454;2023-04-03T06:09:40;15.83;;;3.30;;
19798;SDS011;10059;59.850;10.454;2023-04-03T06:12:07;12.30;;;4.27;;
19798;SDS011;10059;59.850;10.454;2023-04-03T06:14:34;8.63;;;2.07;;
19798;SDS011;10059;59.850;10.454;2023-04-03T06:17:02;9.43;;;2.80;;
19798;SDS011;10059;59.850;10.454;2023-04-03T06:19:29;4.47;;;2.30;;
19798;SDS011;10059;59.850;10.454;2023-04-03T06:21:56;5.90;;;2.10;;
19798;SDS011;10059;59.850;10.454;2023-04-03T06:24:24;7.90;;;2.07;;
19798;SDS011;10059;59.850;10.454;2023-04-03T06:26:52;7.47;;;2.40;;
19798;SDS011;10059;59.850;10.454;2023-04-03T06:29:19;9.07;;;2.20;;
19798;SDS011;10059;59.850;10.454;2023-04-03T06:31:46;9.60;;;2.67;;
19798;SDS011;10059;59.850;10.454;2023-04-03T06:34:13;7.07;;;2.40;;
19798;SDS011;10059;59.850;10.454;2023-04-03T06:36:41;6.10;;;2.50;;
19798;SDS011;10059;59.850;10.454;2023-04-03T06:39:10;13.97;;;3.27;;
19798;SDS011;10059;59.850;10.454;2023-04-03T06:41:41;12.93;;;3.20;;
19798;SDS011;10059;59.850;10.454;2023-04-03T06:44:08;13.07;;;2.83;;
19798;SDS011;10059;59.850;10.454;2023-04-03T06:46:36;20.17;;;4.90;;
19798;SDS011;10059;59.850;10.454;2023-04-03T06:49:04;18.33;;;6.97;;
19798;SDS011;10059;59.850;10.454;2023-04-03T06:51:32;20.30;;;7.07;;
19798;SDS011;10059;59.850;10.454;2023-04-03T06:54:00;13.90;;;5.00;;
19798;SDS011;10059;59.850;10.454;2023-04-03T06:56:28;15.80;;;5.47;;
19798;SDS011;10059;59.850;10.454;2023-04-03T06:58:57;12.03;;;5.20;;
19798;SDS011;10059;59.850;10.454;2023-04-03T07:01:24;11.47;;;4.40;;
19798;SDS011;10059;59.850;10.454;2023-04-03T07:03:52;11.50;;;5.00;;
19798;SDS011;10059;59.850;10.454;2023-04-03T07:06:20;10.60;;;4.90;;
19798;SDS011;10059;59.850;10.454;2023-04-03T07:08:47;9.70;;;4.73;;
19798;SDS011;10059;59.850;10.454;2023-04-03T07:11:15;9.67;;;4.50;;
19798;SDS011;10059;59.850;10.454;2023-04-03T07:13:42;10.63;;;4.83;;
19798;SDS011;10059;59.850;10.454;2023-04-03T07:16:12;9.27;;;3.60;;
19798;SDS011;10059;59.850;10.454;2023-04-03T07:18:38;7.83;;;3.37;;
19798;SDS011;10059;59.850;10.454;2023-04-03T07:21:06;13.03;;;4.27;;
19798;SDS011;10059;59.850;10.454;2023-04-03T07:23:33;9.77;;;3.77;;
19798;SDS011;10059;59.850;10.454;2023-04-03T07:26:00;10.90;;;3.43;;
19798;SDS011;10059;59.850;10.454;2023-04-03T07:28:27;8.87;;;3.00;;
19798;SDS011;10059;59.850;10.454;2023-04-03T07:30:59;12.03;;;3.00;;
19798;SDS011;10059;59.850;10.454;2023-04-03T07:33:28;10.33;;;3.10;;
19798;SDS011;10059;59.850;10.454;2023-04-03T07:35:56;15.07;;;2.70;;
19798;SDS011;10059;59.850;10.454;2023-04-03T07:38:23;7.93;;;2.63;;
19798;SDS011;10059;59.850;10.454;2023-04-03T07:40:50;8.10;;;2.40;;
19798;SDS011;10059;59.850;10.454;2023-04-03T07:43:19;8.40;;;2.70;;
19798;SDS011;10059;59.850;10.454;2023-04-03T07:45:47;5.57;;;2.53;;
19798;SDS011;10059;59.850;10.454;2023-04-03T07:48:16;9.00;;;2.87;;
19798;SDS011;10059;59.850;10.454;2023-04-03T07:50:45;6.57;;;2.90;;
19798;SDS011;10059;59.850;10.454;2023-04-03T07:53:12;6.87;;;2.70;;
19798;SDS011;10059;59.850;10.454;2023-04-03T07:55:40;5.00;;;2.30;;
19798;SDS011;10059;59.850;10.454;2023-04-03T07:58:10;7.57;;;2.87;;
19798;SDS011;10059;59.850;10.454;2023-04-03T08:00:37;5.47;;;2.70;;
19798;SDS011;10059;59.850;10.454;2023-04-03T08:03:05;6.83;;;2.53;;
19798;SDS011;10059;59.850;10.454;2023-04-03T08:05:36;5.97;;;2.33;;
19798;SDS011;10059;59.850;10.454;2023-04-03T08:08:05;6.83;;;2.60;;
19798;SDS011;10059;59.850;10.454;2023-04-03T08:10:33;7.50;;;3.00;;
19798;SDS011;10059;59.850;10.454;2023-04-03T08:13:01;9.80;;;3.07;;
19798;SDS011;10059;59.850;10.454;2023-04-03T08:15:29;13.07;;;2.70;;
19798;SDS011;10059;59.850;10.454;2023-04-03T08:17:56;8.50;;;2.57;;
19798;SDS011;10059;59.850;10.454;2023-04-03T08:20:23;6.57;;;3.27;;
19798;SDS011;10059;59.850;10.454;2023-04-03T08:22:51;11.03;;;2.90;;
19798;SDS011;10059;59.850;10.454;2023-04-03T08:25:19;20.70;;;3.20;;
19798;SDS011;10059;59.850;10.454;2023-04-03T08:27:46;9.30;;;3.53;;
19798;SDS011;10059;59.850;10.454;2023-04-03T08:30:13;8.37;;;3.50;;
19798;SDS011;10059;59.850;10.454;2023-04-03T08:32:40;7.70;;;3.93;;
19798;SDS011;10059;59.850;10.454;2023-04-03T08:35:08;12.53;;;3.53;;
19798;SDS011;10059;59.850;10.454;2023-04-03T08:37:35;11.03;;;3.97;;
19798;SDS011;10059;59.850;10.454;2023-04-03T08:40:03;9.73;;;3.63;;
19798;SDS011;10059;59.850;10.454;2023-04-03T08:42:36;9.40;;;4.23;;
19798;SDS011;10059;59.850;10.454;2023-04-03T08:45:10;14.47;;;4.00;;
19798;SDS011;10059;59.850;10.454;2023-04-03T08:47:42;11.97;;;3.57;;
19798;SDS011;10059;59.850;10.454;2023-04-03T08:50:13;8.67;;;3.70;;
19798;SDS011;10059;59.850;10.454;2023-04-03T08:52:45;9.67;;;3.30;;
19798;SDS011;10059;59.850;10.454;2023-04-03T08:55:18;7.77;;;4.03;;
19798;SDS011;10059;59.850;10.454;2023-04-03T08:57:51;8.63;;;3.87;;
19798;SDS011;10059;59.850;10.454;2023-04-03T09:00:26;9.73;;;3.73;;
19798;SDS011;10059;59.850;10.454;2023-04-03T09:02:56;14.80;;;4.13;;
19798;SDS011;10059;59.850;10.454;2023-04-03T09:05:29;7.50;;;3.80;;
19798;SDS011;10059;59.850;10.454;2023-04-03T09:08:04;11.53;;;4.13;;
19798;SDS011;10059;59.850;10.454;2023-04-03T09:10:36;7.70;;;3.43;;
19798;SDS011;10059;59.850;10.454;2023-04-03T09:13:08;15.20;;;4.23;;
19798;SDS011;10059;59.850;10.454;2023-04-03T09:15:39;7.27;;;3.67;;
19798;SDS011;10059;59.850;10.454;2023-04-03T09:18:10;7.87;;;3.80;;
19798;SDS011;10059;59.850;10.454;2023-04-03T09:20:43;12.40;;;3.73;;
19798;SDS011;10059;59.850;10.454;2023-04-03T09:23:18;9.33;;;3.57;;
19798;SDS011;10059;59.850;10.454;2023-04-03T09:25:51;7.70;;;3.97;;
19798;SDS011;10059;59.850;10.454;2023-04-03T09:28:24;9.03;;;4.03;;
19798;SDS011;10059;59.850;10.454;2023-04-03T09:30:51;11.80;;;3.90;;
19798;SDS011;10059;59.850;10.454;2023-04-03T09:33:17;8.10;;;4.00;;
19798;SDS011;10059;59.850;10.454;2023-04-03T09:35:46;11.87;;;3.83;;
19798;SDS011;10059;59.850;10.454;2023-04-03T09:38:15;10.27;;;3.57;;
19798;SDS011;10059;59.850;10.454;2023-04-03T09:40:45;11.27;;;4.13;;
19798;SDS011;10059;59.850;10.454;2023-04-03T09:43:25;13.17;;;3.97;;
19798;SDS011;10059;59.850;10.454;2023-04-03T09:45:54;11.37;;;4.10;;
19798;SDS011;10059;59.850;10.454;2023-04-03T09:48:23;8.10;;;3.63;;
19798;SDS011;10059;59.850;10.454;2023-04-03T09:50:54;12.90;;;3.93;;
19798;SDS011;10059;59.850;10.454;2023-04-03T09:53:27;13.00;;;3.73;;
19798;SDS011;10059;59.850;10.454;2023-04-03T09:55:57;10.00;;;3.93;;
19798;SDS011;10059;59.850;10.454;2023-04-03T09:58:27;9.70;;;4.00;;
19798;SDS011;10059;59.850;10.454;2023-04-03T10:00:58;13.93;;;4.23;;
19798;SDS011;10059;59.850;10.454;2023-04-03T10:03:28;7.53;;;3.80;;
19798;SDS011;10059;59.850;10.454;2023-04-03T10:05:57;6.97;;;3.57;;
19798;SDS011;10059;59.850;10.454;2023-04-03T10:08:25;8.40;;;3.90;;
19798;SDS011;10059;59.850;10.454;2023-04-03T10:13:55;7.87;;;4.00;;
19798;SDS011;10059;59.850;10.454;2023-04-03T10:16:25;9.20;;;3.70;;
19798;SDS011;10059;59.850;10.454;2023-04-03T10:19:01;7.70;;;4.03;;
19798;SDS011;10059;59.850;10.454;2023-04-03T10:21:38;9.77;;;4.07;;
19798;SDS011;10059;59.850;10.454;2023-04-03T10:24:11;8.80;;;4.07;;
19798;SDS011;10059;59.850;10.454;2023-04-03T10:26:45;7.40;;;4.17;;
19798;SDS011;10059;59.850;10.454;2023-04-03T10:29:25;11.27;;;3.80;;
19798;SDS011;10059;59.850;10.454;2023-04-03T10:32:00;7.63;;;4.07;;
19798;SDS011;10059;59.850;10.454;2023-04-03T10:34:37;7.93;;;4.10;;
19798;SDS011;10059;59.850;10.454;2023-04-03T10:37:10;7.00;;;3.40;;
19798;SDS011;10059;59.850;10.454;2023-04-03T10:39:46;11.00;;;3.73;;
19798;SDS011;10059;59.850;10.454;2023-04-03T10:42:22;7.80;;;3.53;;
19798;SDS011;10059;59.850;10.454;2023-04-03T10:45:03;8.70;;;3.30;;
19798;SDS011;10059;59.850;10.454;2023-04-03T10:47:46;8.20;;;2.70;;
19798;SDS011;10059;59.850;10.454;2023-04-03T10:50:37;6.23;;;2.90;;
19798;SDS011;10059;59.850;10.454;2023-04-03T10:53:11;6.67;;;2.90;;
19798;SDS011;10059;59.850;10.454;2023-04-03T10:55:48;8.10;;;2.87;;
19798;SDS011;10059;59.850;10.454;2023-04-03T10:58:25;7.37;;;2.77;;
19798;SDS011;10059;59.850;10.454;2023-04-03T11:00:57;5.60;;;2.60;;
19798;SDS011;10059;59.850;10.454;2023-04-03T11:03:31;6.97;;;2.80;;
19798;SDS011;10059;59.850;10.454;2023-04-03T11:06:02;6.30;;;3.27;;
19798;SDS011;10059;59.850;10.454;2023-04-03T11:08:33;7.97;;;3.30;;
19798;SDS011;10059;59.850;10.454;2023-04-03T11:11:05;5.50;;;3.00;;
19798;SDS011;10059;59.850;10.454;2023-04-03T11:13:35;8.17;;;3.00;;
19798;SDS011;10059;59.850;10.454;2023-04-03T11:16:09;5.50;;;2.70;;
19798;SDS011;10059;59.850;10.454;2023-04-03T11:18:45;8.10;;;3.40;;
19798;SDS011;10059;59.850;10.454;2023-04-03T11:21:16;17.30;;;3.50;;
19798;SDS011;10059;59.850;10.454;2023-04-03T11:23:48;9.83;;;3.10;;
19798;SDS011;10059;59.850;10.454;2023-04-03T11:26:18;6.27;;;2.93;;
19798;SDS011;10059;59.850;10.454;2023-04-03T11:28:51;6.17;;;2.23;;
19798;SDS011;10059;59.850;10.454;2023-04-03T11:31:25;6.63;;;2.80;;
19798;SDS011;10059;59.850;10.454;2023-04-03T11:34:06;4.90;;;2.97;;
19798;SDS011;10059;59.850;10.454;2023-04-03T11:36:44;5.40;;;2.77;;
19798;SDS011;10059;59.850;10.454;2023-04-03T11:39:17;4.60;;;2.70;;
19798;SDS011;10059;59.850;10.454;2023-04-03T11:41:49;4.50;;;2.03;;
19798;SDS011;10059;59.850;10.454;2023-04-03T11:44:27;4.77;;;2.27;;
19798;SDS011;10059;59.850;10.454;2023-04-03T11:47:00;6.13;;;3.20;;
19798;SDS011;10059;59.850;10.454;2023-04-03T11:58:18;5.97;;;2.00;;
19798;SDS011;10059;59.850;10.454;2023-04-03T12:12:57;5.97;;;2.03;;
19798;SDS011;10059;59.850;10.454;2023-04-03T12:24:46;7.73;;;1.90;;
19798;SDS011;10059;59.850;10.454;2023-04-03T12:27:20;6.00;;;1.63;;
19798;SDS011;10059;59.850;10.454;2023-04-03T12:29:51;3.57;;;1.70;;
19798;SDS011;10059;59.850;10.454;2023-04-03T12:35:17;5.67;;;1.83;;
19798;SDS011;10059;59.850;10.454;2023-04-03T12:40:59;6.70;;;1.70;;
19798;SDS011;10059;59.850;10.454;2023-04-03T12:43:42;9.77;;;1.67;;
19798;SDS011;10059;59.850;10.454;2023-04-03T12:46:17;4.67;;;1.70;;
19798;SDS011;10059;59.850;10.454;2023-04-03T12:48:47;5.23;;;1.63;;
19798;SDS011;10059;59.850;10.454;2023-04-03T12:51:18;4.67;;;1.60;;
19798;SDS011;10059;59.850;10.454;2023-04-03T12:53:46;9.10;;;1.60;;
19798;SDS011;10059;59.850;10.454;2023-04-03T12:56:19;6.33;;;1.90;;
19798;SDS011;10059;59.850;10.454;2023-04-03T12:58:48;5.50;;;1.63;;
19798;SDS011;10059;59.850;10.454;2023-04-03T13:01:16;4.23;;;1.73;;
19798;SDS011;10059;59.850;10.454;2023-04-03T13:03:47;5.77;;;1.90;;
19798;SDS011;10059;59.850;10.454;2023-04-03T13:06:20;5.67;;;1.63;;
19798;SDS011;10059;59.850;10.454;2023-04-03T13:08:50;4.57;;;1.60;;
19798;SDS011;10059;59.850;10.454;2023-04-03T13:11:17;3.67;;;1.57;;
19798;SDS011;10059;59.850;10.454;2023-04-03T13:13:56;8.77;;;2.13;;
19798;SDS011;10059;59.850;10.454;2023-04-03T13:16:24;5.53;;;1.77;;
19798;SDS011;10059;59.850;10.454;2023-04-03T13:18:52;4.60;;;1.57;;
19798;SDS011;10059;59.850;10.454;2023-04-03T13:21:22;6.03;;;1.60;;
19798;SDS011;10059;59.850;10.454;2023-04-03T13:23:53;5.83;;;1.63;;
19798;SDS011;10059;59.850;10.454;2023-04-03T13:26:22;5.77;;;1.50;;
19798;SDS011;10059;59.850;10.454;2023-04-03T13:28:52;7.80;;;1.70;;
19798;SDS011;10059;59.850;10.454;2023-04-03T13:31:25;5.73;;;1.80;;
19798;SDS011;10059;59.850;10.454;2023-04-03T13:33:55;5.73;;;1.67;;
19798;SDS011;10059;59.850;10.454;2023-04-03T13:36:26;5.53;;;1.60;;
19798;SDS011;10059;59.850;10.454;2023-04-03T13:39:00;8.43;;;1.60;;
19798;SDS011;10059;59.850;10.454;2023-04-03T13:41:30;5.70;;;1.40;;
19798;SDS011;10059;59.850;10.454;2023-04-03T13:46:57;7.03;;;1.53;;
19798;SDS011;10059;59.850;10.454;2023-04-03T13:49:29;3.87;;;1.37;;
19798;SDS011;10059;59.850;10.454;2023-04-03T13:51:59;5.20;;;1.47;;
19798;SDS011;10059;59.850;10.454;2023-04-03T13:54:29;6.37;;;1.40;;
19798;SDS011;10059;59.850;10.454;2023-04-03T13:56:58;2.77;;;1.40;;
19798;SDS011;10059;59.850;10.454;2023-04-03T13:59:27;3.83;;;1.40;;
19798;SDS011;10059;59.850;10.454;2023-04-03T14:02:09;5.30;;;1.40;;
19798;SDS011;10059;59.850;10.454;2023-04-03T14:04:53;4.30;;;1.57;;
19798;SDS011;10059;59.850;10.454;2023-04-03T14:07:26;5.63;;;1.73;;
19798;SDS011;10059;59.850;10.454;2023-04-03T14:09:54;5.37;;;1.47;;
19798;SDS011;10059;59.850;10.454;2023-04-03T14:12:24;4.13;;;1.37;;
19798;SDS011;10059;59.850;10.454;2023-04-03T14:14:53;5.37;;;1.30;;
19798;SDS011;10059;59.850;10.454;2023-04-03T14:17:22;5.57;;;1.40;;
19798;SDS011;10059;59.850;10.454;2023-04-03T14:19:51;12.03;;;2.43;;
19798;SDS011;10059;59.850;10.454;2023-04-03T14:22:20;4.97;;;1.47;;
19798;SDS011;10059;59.850;10.454;2023-04-03T14:24:50;5.63;;;1.57;;
19798;SDS011;10059;59.850;10.454;2023-04-03T14:27:19;5.60;;;1.70;;
19798;SDS011;10059;59.850;10.454;2023-04-03T14:29:47;3.57;;;1.10;;
19798;SDS011;10059;59.850;10.454;2023-04-03T14:32:16;8.10;;;1.40;;
19798;SDS011;10059;59.850;10.454;2023-04-03T14:34:44;4.63;;;1.20;;
19798;SDS011;10059;59.850;10.454;2023-04-03T14:37:12;9.00;;;1.77;;
19798;SDS011;10059;59.850;10.454;2023-04-03T14:39:42;3.07;;;1.20;;
19798;SDS011;10059;59.850;10.454;2023-04-03T14:42:13;5.47;;;1.30;;
19798;SDS011;10059;59.850;10.454;2023-04-03T14:44:43;3.10;;;1.40;;
19798;SDS011;10059;59.850;10.454;2023-04-03T14:47:10;3.70;;;1.23;;
19798;SDS011;10059;59.850;10.454;2023-04-03T14:49:39;5.60;;;1.70;;
19798;SDS011;10059;59.850;10.454;2023-04-03T14:52:09;4.17;;;1.30;;
19798;SDS011;10059;59.850;10.454;2023-04-03T14:54:44;4.33;;;1.30;;
19798;SDS011;10059;59.850;10.454;2023-04-03T14:57:13;4.00;;;1.40;;
19798;SDS011;10059;59.850;10.454;2023-04-03T14:59:41;5.90;;;1.37;;
19798;SDS011;10059;59.850;10.454;2023-04-03T15:02:11;6.03;;;1.50;;
19798;SDS011;10059;59.850;10.454;2023-04-03T15:04:51;7.27;;;1.60;;
19798;SDS011;10059;59.850;10.454;2023-04-03T15:07:18;4.17;;;1.40;;
19798;SDS011;10059;59.850;10.454;2023-04-03T15:09:45;2.10;;;1.30;;
19798;SDS011;10059;59.850;10.454;2023-04-03T15:12:13;4.37;;;1.60;;
19798;SDS011;10059;59.850;10.454;2023-04-03T15:14:40;4.43;;;1.60;;
19798;SDS011;10059;59.850;10.454;2023-04-03T15:17:08;5.53;;;1.50;;
19798;SDS011;10059;59.850;10.454;2023-04-03T15:19:41;4.03;;;1.60;;
19798;SDS011;10059;59.850;10.454;2023-04-03T15:22:08;6.27;;;1.40;;
19798;SDS011;10059;59.850;10.454;2023-04-03T15:24:40;5.20;;;1.67;;
19798;SDS011;10059;59.850;10.454;2023-04-03T15:27:06;5.13;;;1.80;;
19798;SDS011;10059;59.850;10.454;2023-04-03T15:29:35;8.17;;;1.90;;
19798;SDS011;10059;59.850;10.454;2023-04-03T15:32:02;4.13;;;1.80;;